Millerton, Oklahoma
Current Conditions -  °F | °C
As of 1:35 PM on Monday 22 Dec 2014 (Local Time) from K4O4 Reporting Station
Overcast Overcast  
Wind Chill: 61°   Ceiling: 3500
Heat Index: 61°   Visibility: 10mi
Dew Point: 52°   Wind: 6mph
Humidity: 72%   Direction: 260°W
Pressure: 29.54"   Gusts: NA
Location:  33.99°N, 95.01°W
Report Text: K4O4 221935Z AUTO 26005KT 10SM SCT027 BKN035 OVC041 16/11 A2954 RMK AO2
Loading
Personal Weather Stations






























Interactive Weather Map New forecast layout! Learn more

10-Day Weather Forecast

Advertisements
Track Severe Weather on mobile